sensor_id;sensor_type;location;lat;lon;timestamp;P1;durP1;ratioP1;P2;durP2;ratioP2
50821;SDS011;36794;51.212;6.980;2023-06-22T00:00:54;7.45;;;3.10;;
50821;SDS011;36794;51.212;6.980;2023-06-22T00:03:22;4.55;;;2.92;;
50821;SDS011;36794;51.212;6.980;2023-06-22T00:05:49;6.75;;;3.00;;
50821;SDS011;36794;51.212;6.980;2023-06-22T00:08:15;4.55;;;3.25;;
50821;SDS011;36794;51.212;6.980;2023-06-22T00:10:42;7.65;;;2.67;;
50821;SDS011;36794;51.212;6.980;2023-06-22T00:13:08;9.38;;;3.25;;
50821;SDS011;36794;51.212;6.980;2023-06-22T00:15:34;3.75;;;2.78;;
50821;SDS011;36794;51.212;6.980;2023-06-22T00:18:01;4.40;;;2.85;;
50821;SDS011;36794;51.212;6.980;2023-06-22T00:20:27;4.05;;;2.72;;
50821;SDS011;36794;51.212;6.980;2023-06-22T00:22:54;5.57;;;2.85;;
50821;SDS011;36794;51.212;6.980;2023-06-22T00:25:20;3.83;;;2.65;;
50821;SDS011;36794;51.212;6.980;2023-06-22T00:27:46;4.32;;;3.00;;
50821;SDS011;36794;51.212;6.980;2023-06-22T00:30:12;5.40;;;3.00;;
50821;SDS011;36794;51.212;6.980;2023-06-22T00:32:38;4.80;;;2.85;;
50821;SDS011;36794;51.212;6.980;2023-06-22T00:35:04;6.57;;;3.10;;
50821;SDS011;36794;51.212;6.980;2023-06-22T00:37:30;4.50;;;3.08;;
50821;SDS011;36794;51.212;6.980;2023-06-22T00:39:56;4.53;;;3.35;;
50821;SDS011;36794;51.212;6.980;2023-06-22T00:42:22;5.38;;;3.08;;
50821;SDS011;36794;51.212;6.980;2023-06-22T00:44:48;7.63;;;3.90;;
50821;SDS011;36794;51.212;6.980;2023-06-22T00:47:15;6.55;;;3.88;;
50821;SDS011;36794;51.212;6.980;2023-06-22T00:49:41;5.22;;;3.95;;
50821;SDS011;36794;51.212;6.980;2023-06-22T00:52:07;9.35;;;3.65;;
50821;SDS011;36794;51.212;6.980;2023-06-22T00:54:37;9.73;;;3.72;;
50821;SDS011;36794;51.212;6.980;2023-06-22T00:57:03;5.45;;;3.83;;
50821;SDS011;36794;51.212;6.980;2023-06-22T00:59:29;9.15;;;3.78;;
50821;SDS011;36794;51.212;6.980;2023-06-22T01:01:55;5.18;;;3.42;;
50821;SDS011;36794;51.212;6.980;2023-06-22T01:04:23;6.72;;;3.38;;
50821;SDS011;36794;51.212;6.980;2023-06-22T01:07:02;7.40;;;3.90;;
50821;SDS011;36794;51.212;6.980;2023-06-22T01:09:34;6.65;;;4.30;;
50821;SDS011;36794;51.212;6.980;2023-06-22T01:12:04;5.43;;;3.88;;
50821;SDS011;36794;51.212;6.980;2023-06-22T01:15:16;5.88;;;3.63;;
50821;SDS011;36794;51.212;6.980;2023-06-22T01:17:20;6.65;;;4.30;;
50821;SDS011;36794;51.212;6.980;2023-06-22T01:19:50;6.18;;;3.78;;
50821;SDS011;36794;51.212;6.980;2023-06-22T01:22:24;5.13;;;3.90;;
50821;SDS011;36794;51.212;6.980;2023-06-22T01:29:47;5.80;;;3.80;;
50821;SDS011;36794;51.212;6.980;2023-06-22T01:32:13;8.70;;;4.63;;
50821;SDS011;36794;51.212;6.980;2023-06-22T01:34:40;10.45;;;5.25;;
50821;SDS011;36794;51.212;6.980;2023-06-22T01:37:06;9.35;;;5.20;;
50821;SDS011;36794;51.212;6.980;2023-06-22T01:39:33;8.80;;;4.60;;
50821;SDS011;36794;51.212;6.980;2023-06-22T01:41:59;7.55;;;4.65;;
50821;SDS011;36794;51.212;6.980;2023-06-22T01:44:25;7.95;;;4.95;;
50821;SDS011;36794;51.212;6.980;2023-06-22T01:46:52;7.60;;;5.30;;
50821;SDS011;36794;51.212;6.980;2023-06-22T01:49:18;9.10;;;5.60;;
50821;SDS011;36794;51.212;6.980;2023-06-22T01:51:44;10.02;;;4.85;;
50821;SDS011;36794;51.212;6.980;2023-06-22T01:54:10;8.57;;;5.25;;
50821;SDS011;36794;51.212;6.980;2023-06-22T01:56:36;9.18;;;4.75;;
50821;SDS011;36794;51.212;6.980;2023-06-22T01:59:12;8.40;;;5.00;;
50821;SDS011;36794;51.212;6.980;2023-06-22T02:01:44;7.20;;;4.88;;
50821;SDS011;36794;51.212;6.980;2023-06-22T02:04:13;10.48;;;4.28;;
50821;SDS011;36794;51.212;6.980;2023-06-22T02:06:45;9.85;;;5.00;;
50821;SDS011;36794;51.212;6.980;2023-06-22T02:09:12;7.40;;;4.80;;
50821;SDS011;36794;51.212;6.980;2023-06-22T02:11:40;6.60;;;4.40;;
50821;SDS011;36794;51.212;6.980;2023-06-22T02:14:07;8.85;;;4.47;;
50821;SDS011;36794;51.212;6.980;2023-06-22T02:16:33;7.53;;;4.60;;
50821;SDS011;36794;51.212;6.980;2023-06-22T02:19:00;8.73;;;4.82;;
50821;SDS011;36794;51.212;6.980;2023-06-22T02:21:28;8.77;;;5.00;;
50821;SDS011;36794;51.212;6.980;2023-06-22T02:23:54;9.43;;;4.95;;
50821;SDS011;36794;51.212;6.980;2023-06-22T02:26:20;6.47;;;4.55;;
50821;SDS011;36794;51.212;6.980;2023-06-22T02:28:46;12.82;;;5.32;;
50821;SDS011;36794;51.212;6.980;2023-06-22T02:31:12;7.20;;;5.05;;
50821;SDS011;36794;51.212;6.980;2023-06-22T02:33:38;6.63;;;4.25;;
50821;SDS011;36794;51.212;6.980;2023-06-22T02:36:04;9.02;;;5.05;;
50821;SDS011;36794;51.212;6.980;2023-06-22T02:38:33;9.63;;;5.68;;
50821;SDS011;36794;51.212;6.980;2023-06-22T02:41:01;9.30;;;5.30;;
50821;SDS011;36794;51.212;6.980;2023-06-22T02:43:27;8.38;;;4.30;;
50821;SDS011;36794;51.212;6.980;2023-06-22T02:45:53;10.13;;;5.40;;
50821;SDS011;36794;51.212;6.980;2023-06-22T02:48:19;7.43;;;5.50;;
50821;SDS011;36794;51.212;6.980;2023-06-22T02:50:45;8.27;;;5.43;;
50821;SDS011;36794;51.212;6.980;2023-06-22T02:53:11;9.90;;;5.60;;
50821;SDS011;36794;51.212;6.980;2023-06-22T02:55:37;10.18;;;5.32;;
50821;SDS011;36794;51.212;6.980;2023-06-22T02:58:04;9.20;;;5.40;;
50821;SDS011;36794;51.212;6.980;2023-06-22T03:00:31;8.90;;;4.75;;
50821;SDS011;36794;51.212;6.980;2023-06-22T03:02:57;9.88;;;5.00;;
50821;SDS011;36794;51.212;6.980;2023-06-22T03:05:23;8.93;;;4.90;;
50821;SDS011;36794;51.212;6.980;2023-06-22T03:07:49;8.27;;;5.22;;
50821;SDS011;36794;51.212;6.980;2023-06-22T03:10:16;5.65;;;4.00;;
50821;SDS011;36794;51.212;6.980;2023-06-22T03:12:42;6.47;;;4.68;;
50821;SDS011;36794;51.212;6.980;2023-06-22T03:15:09;7.82;;;4.50;;
50821;SDS011;36794;51.212;6.980;2023-06-22T03:17:36;8.00;;;3.92;;
50821;SDS011;36794;51.212;6.980;2023-06-22T03:20:03;6.38;;;4.22;;
50821;SDS011;36794;51.212;6.980;2023-06-22T03:22:34;7.47;;;5.13;;
50821;SDS011;36794;51.212;6.980;2023-06-22T03:25:00;8.38;;;4.43;;
50821;SDS011;36794;51.212;6.980;2023-06-22T03:27:26;7.47;;;4.40;;
50821;SDS011;36794;51.212;6.980;2023-06-22T03:29:52;9.90;;;5.05;;
50821;SDS011;36794;51.212;6.980;2023-06-22T03:32:18;10.48;;;5.18;;
50821;SDS011;36794;51.212;6.980;2023-06-22T03:34:44;10.20;;;4.63;;
50821;SDS011;36794;51.212;6.980;2023-06-22T03:37:14;8.27;;;4.70;;
50821;SDS011;36794;51.212;6.980;2023-06-22T03:39:41;9.98;;;5.25;;
50821;SDS011;36794;51.212;6.980;2023-06-22T03:42:07;7.97;;;4.85;;
50821;SDS011;36794;51.212;6.980;2023-06-22T03:44:33;9.88;;;5.00;;
50821;SDS011;36794;51.212;6.980;2023-06-22T03:47:01;9.30;;;4.38;;
50821;SDS011;36794;51.212;6.980;2023-06-22T03:49:27;8.32;;;4.45;;
50821;SDS011;36794;51.212;6.980;2023-06-22T03:51:53;9.18;;;4.72;;
50821;SDS011;36794;51.212;6.980;2023-06-22T03:54:19;10.07;;;5.25;;
50821;SDS011;36794;51.212;6.980;2023-06-22T03:56:45;8.82;;;4.45;;
50821;SDS011;36794;51.212;6.980;2023-06-22T03:59:11;6.32;;;4.35;;
50821;SDS011;36794;51.212;6.980;2023-06-22T04:01:37;9.40;;;4.95;;
50821;SDS011;36794;51.212;6.980;2023-06-22T04:04:03;8.43;;;4.88;;
50821;SDS011;36794;51.212;6.980;2023-06-22T04:06:29;7.38;;;4.63;;
50821;SDS011;36794;51.212;6.980;2023-06-22T04:08:54;9.38;;;5.45;;
50821;SDS011;36794;51.212;6.980;2023-06-22T04:11:21;13.80;;;4.40;;
50821;SDS011;36794;51.212;6.980;2023-06-22T04:13:46;8.57;;;4.57;;
50821;SDS011;36794;51.212;6.980;2023-06-22T04:16:14;7.70;;;4.50;;
50821;SDS011;36794;51.212;6.980;2023-06-22T04:18:40;7.63;;;4.40;;
50821;SDS011;36794;51.212;6.980;2023-06-22T04:21:06;7.95;;;4.57;;
50821;SDS011;36794;51.212;6.980;2023-06-22T04:23:32;10.18;;;5.22;;
50821;SDS011;36794;51.212;6.980;2023-06-22T04:25:58;9.93;;;4.78;;
50821;SDS011;36794;51.212;6.980;2023-06-22T04:28:24;13.32;;;5.28;;
50821;SDS011;36794;51.212;6.980;2023-06-22T04:30:50;12.00;;;5.05;;
50821;SDS011;36794;51.212;6.980;2023-06-22T04:33:16;15.15;;;5.50;;
50821;SDS011;36794;51.212;6.980;2023-06-22T04:35:44;6.65;;;5.07;;
50821;SDS011;36794;51.212;6.980;2023-06-22T04:38:11;13.77;;;5.57;;
50821;SDS011;36794;51.212;6.980;2023-06-22T04:40:38;10.93;;;5.40;;
50821;SDS011;36794;51.212;6.980;2023-06-22T04:43:04;9.35;;;5.47;;
50821;SDS011;36794;51.212;6.980;2023-06-22T04:45:31;11.90;;;5.78;;
50821;SDS011;36794;51.212;6.980;2023-06-22T04:47:57;13.13;;;6.00;;
50821;SDS011;36794;51.212;6.980;2023-06-22T04:50:24;11.45;;;5.90;;
50821;SDS011;36794;51.212;6.980;2023-06-22T04:52:50;8.25;;;5.40;;
50821;SDS011;36794;51.212;6.980;2023-06-22T04:55:17;11.75;;;5.63;;
50821;SDS011;36794;51.212;6.980;2023-06-22T04:57:45;11.70;;;6.07;;
50821;SDS011;36794;51.212;6.980;2023-06-22T05:00:15;18.85;;;6.28;;
50821;SDS011;36794;51.212;6.980;2023-06-22T05:02:42;16.75;;;5.85;;
50821;SDS011;36794;51.212;6.980;2023-06-22T05:05:09;8.13;;;5.22;;
50821;SDS011;36794;51.212;6.980;2023-06-22T05:07:38;16.20;;;6.18;;
50821;SDS011;36794;51.212;6.980;2023-06-22T05:10:08;15.05;;;5.78;;
50821;SDS011;36794;51.212;6.980;2023-06-22T05:12:34;9.77;;;5.65;;
50821;SDS011;36794;51.212;6.980;2023-06-22T05:15:00;14.38;;;5.70;;
50821;SDS011;36794;51.212;6.980;2023-06-22T05:17:26;11.15;;;5.70;;
50821;SDS011;36794;51.212;6.980;2023-06-22T05:19:53;15.80;;;6.25;;
50821;SDS011;36794;51.212;6.980;2023-06-22T05:22:20;14.43;;;5.50;;
50821;SDS011;36794;51.212;6.980;2023-06-22T05:24:46;15.05;;;5.38;;
50821;SDS011;36794;51.212;6.980;2023-06-22T05:27:12;16.27;;;5.65;;
50821;SDS011;36794;51.212;6.980;2023-06-22T05:29:39;12.40;;;5.30;;
50821;SDS011;36794;51.212;6.980;2023-06-22T05:32:05;12.10;;;4.90;;
50821;SDS011;36794;51.212;6.980;2023-06-22T05:34:31;12.63;;;4.85;;
50821;SDS011;36794;51.212;6.980;2023-06-22T05:36:57;16.48;;;5.93;;
50821;SDS011;36794;51.212;6.980;2023-06-22T05:39:26;12.10;;;5.35;;
50821;SDS011;36794;51.212;6.980;2023-06-22T05:41:52;14.23;;;6.40;;
50821;SDS011;36794;51.212;6.980;2023-06-22T05:44:18;11.77;;;5.60;;
50821;SDS011;36794;51.212;6.980;2023-06-22T05:46:47;13.50;;;5.60;;
50821;SDS011;36794;51.212;6.980;2023-06-22T05:49:13;14.13;;;5.97;;
50821;SDS011;36794;51.212;6.980;2023-06-22T05:51:40;13.35;;;5.88;;
50821;SDS011;36794;51.212;6.980;2023-06-22T05:54:06;11.02;;;6.22;;
50821;SDS011;36794;51.212;6.980;2023-06-22T05:56:33;11.45;;;5.90;;
50821;SDS011;36794;51.212;6.980;2023-06-22T05:58:59;14.30;;;6.43;;
50821;SDS011;36794;51.212;6.980;2023-06-22T06:01:25;19.67;;;7.13;;
50821;SDS011;36794;51.212;6.980;2023-06-22T06:03:51;11.60;;;5.28;;
50821;SDS011;36794;51.212;6.980;2023-06-22T06:06:18;13.77;;;6.40;;
50821;SDS011;36794;51.212;6.980;2023-06-22T06:08:46;13.40;;;6.47;;
50821;SDS011;36794;51.212;6.980;2023-06-22T06:11:12;13.15;;;6.50;;
50821;SDS011;36794;51.212;6.980;2023-06-22T06:13:37;16.30;;;7.38;;
50821;SDS011;36794;51.212;6.980;2023-06-22T06:16:04;13.98;;;6.88;;
50821;SDS011;36794;51.212;6.980;2023-06-22T06:18:30;12.80;;;6.93;;
50821;SDS011;36794;51.212;6.980;2023-06-22T06:20:56;16.77;;;6.90;;
50821;SDS011;36794;51.212;6.980;2023-06-22T06:23:22;9.80;;;6.47;;
50821;SDS011;36794;51.212;6.980;2023-06-22T06:25:48;15.88;;;6.70;;
50821;SDS011;36794;51.212;6.980;2023-06-22T06:28:14;10.77;;;6.97;;
50821;SDS011;36794;51.212;6.980;2023-06-22T06:30:40;14.18;;;7.00;;
50821;SDS011;36794;51.212;6.980;2023-06-22T06:33:06;15.70;;;7.10;;
50821;SDS011;36794;51.212;6.980;2023-06-22T06:35:33;16.35;;;6.90;;
50821;SDS011;36794;51.212;6.980;2023-06-22T06:37:59;11.82;;;7.63;;
50821;SDS011;36794;51.212;6.980;2023-06-22T06:40:25;16.58;;;8.23;;
50821;SDS011;36794;51.212;6.980;2023-06-22T06:42:51;17.23;;;9.00;;
50821;SDS011;36794;51.212;6.980;2023-06-22T06:45:18;16.15;;;10.02;;
50821;SDS011;36794;51.212;6.980;2023-06-22T06:47:45;14.32;;;9.95;;
50821;SDS011;36794;51.212;6.980;2023-06-22T06:50:12;15.30;;;9.80;;
50821;SDS011;36794;51.212;6.980;2023-06-22T06:52:38;23.30;;;11.65;;
50821;SDS011;36794;51.212;6.980;2023-06-22T06:55:05;22.67;;;11.65;;
50821;SDS011;36794;51.212;6.980;2023-06-22T06:57:33;27.98;;;14.65;;
50821;SDS011;36794;51.212;6.980;2023-06-22T06:59:59;30.63;;;14.90;;
50821;SDS011;36794;51.212;6.980;2023-06-22T07:02:26;33.88;;;16.35;;
50821;SDS011;36794;51.212;6.980;2023-06-22T07:04:53;39.92;;;16.40;;
50821;SDS011;36794;51.212;6.980;2023-06-22T07:07:22;31.25;;;16.63;;
50821;SDS011;36794;51.212;6.980;2023-06-22T07:09:48;27.67;;;17.25;;
50821;SDS011;36794;51.212;6.980;2023-06-22T07:12:14;30.40;;;17.65;;
50821;SDS011;36794;51.212;6.980;2023-06-22T07:14:40;25.75;;;17.33;;
50821;SDS011;36794;51.212;6.980;2023-06-22T07:17:06;37.30;;;18.42;;
50821;SDS011;36794;51.212;6.980;2023-06-22T07:19:32;40.25;;;20.55;;
50821;SDS011;36794;51.212;6.980;2023-06-22T07:21:58;30.17;;;20.42;;
50821;SDS011;36794;51.212;6.980;2023-06-22T07:24:24;40.92;;;21.35;;
50821;SDS011;36794;51.212;6.980;2023-06-22T07:26:50;46.30;;;24.70;;
50821;SDS011;36794;51.212;6.980;2023-06-22T07:29:17;38.03;;;22.35;;
50821;SDS011;36794;51.212;6.980;2023-06-22T07:31:43;39.95;;;22.65;;
50821;SDS011;36794;51.212;6.980;2023-06-22T07:34:09;52.22;;;25.48;;
50821;SDS011;36794;51.212;6.980;2023-06-22T07:36:35;42.58;;;26.00;;
50821;SDS011;36794;51.212;6.980;2023-06-22T07:39:04;45.08;;;26.77;;
50821;SDS011;36794;51.212;6.980;2023-06-22T07:41:30;46.13;;;26.25;;
50821;SDS011;36794;51.212;6.980;2023-06-22T07:43:56;43.75;;;25.90;;
50821;SDS011;36794;51.212;6.980;2023-06-22T07:46:22;46.97;;;28.30;;
50821;SDS011;36794;51.212;6.980;2023-06-22T07:48:48;48.78;;;26.67;;
50821;SDS011;36794;51.212;6.980;2023-06-22T07:51:14;38.17;;;24.80;;
50821;SDS011;36794;51.212;6.980;2023-06-22T07:53:41;31.90;;;23.42;;
50821;SDS011;36794;51.212;6.980;2023-06-22T07:56:09;33.60;;;21.33;;
50821;SDS011;36794;51.212;6.980;2023-06-22T07:58:35;34.00;;;20.88;;
50821;SDS011;36794;51.212;6.980;2023-06-22T08:01:01;27.77;;;18.98;;
50821;SDS011;36794;51.212;6.980;2023-06-22T08:03:28;23.55;;;17.65;;
50821;SDS011;36794;51.212;6.980;2023-06-22T08:05:54;25.25;;;18.00;;
50821;SDS011;36794;51.212;6.980;2023-06-22T08:08:20;28.13;;;19.35;;
50821;SDS011;36794;51.212;6.980;2023-06-22T08:10:46;26.63;;;18.10;;
50821;SDS011;36794;51.212;6.980;2023-06-22T08:13:13;23.17;;;15.68;;
50821;SDS011;36794;51.212;6.980;2023-06-22T08:15:39;18.80;;;12.93;;
50821;SDS011;36794;51.212;6.980;2023-06-22T08:18:05;24.00;;;12.77;;
50821;SDS011;36794;51.212;6.980;2023-06-22T08:20:31;23.75;;;12.68;;
50821;SDS011;36794;51.212;6.980;2023-06-22T08:22:57;15.80;;;12.35;;
50821;SDS011;36794;51.212;6.980;2023-06-22T08:25:30;18.75;;;11.73;;
50821;SDS011;36794;51.212;6.980;2023-06-22T08:27:56;17.30;;;11.70;;
50821;SDS011;36794;51.212;6.980;2023-06-22T08:30:22;16.52;;;11.63;;
50821;SDS011;36794;51.212;6.980;2023-06-22T08:32:48;14.35;;;12.40;;
50821;SDS011;36794;51.212;6.980;2023-06-22T08:35:14;17.17;;;11.25;;
50821;SDS011;36794;51.212;6.980;2023-06-22T08:37:40;17.42;;;10.60;;
50821;SDS011;36794;51.212;6.980;2023-06-22T08:40:07;11.55;;;9.93;;
50821;SDS011;36794;51.212;6.980;2023-06-22T08:42:34;12.52;;;10.07;;
50821;SDS011;36794;51.212;6.980;2023-06-22T08:45:00;12.10;;;10.35;;
50821;SDS011;36794;51.212;6.980;2023-06-22T08:47:29;13.43;;;10.40;;
50821;SDS011;36794;51.212;6.980;2023-06-22T08:49:55;15.02;;;10.90;;
50821;SDS011;36794;51.212;6.980;2023-06-22T08:52:21;20.23;;;11.75;;
50821;SDS011;36794;51.212;6.980;2023-06-22T08:54:48;16.45;;;12.02;;
50821;SDS011;36794;51.212;6.980;2023-06-22T08:57:14;15.55;;;10.98;;
50821;SDS011;36794;51.212;6.980;2023-06-22T08:59:40;13.32;;;11.48;;
50821;SDS011;36794;51.212;6.980;2023-06-22T09:02:07;13.20;;;10.68;;
50821;SDS011;36794;51.212;6.980;2023-06-22T09:04:33;17.00;;;10.82;;
50821;SDS011;36794;51.212;6.980;2023-06-22T09:06:59;13.82;;;10.00;;
50821;SDS011;36794;51.212;6.980;2023-06-22T09:09:25;10.90;;;8.05;;
50821;SDS011;36794;51.212;6.980;2023-06-22T09:11:51;12.52;;;9.93;;
50821;SDS011;36794;51.212;6.980;2023-06-22T09:14:17;13.82;;;9.65;;
50821;SDS011;36794;51.212;6.980;2023-06-22T09:16:44;12.98;;;9.13;;
50821;SDS011;36794;51.212;6.980;2023-06-22T09:19:10;14.40;;;9.38;;
50821;SDS011;36794;51.212;6.980;2023-06-22T09:21:36;14.27;;;9.70;;
50821;SDS011;36794;51.212;6.980;2023-06-22T09:24:02;14.60;;;9.65;;
50821;SDS011;36794;51.212;6.980;2023-06-22T09:26:28;13.23;;;10.38;;
50821;SDS011;36794;51.212;6.980;2023-06-22T09:28:54;14.32;;;9.63;;
50821;SDS011;36794;51.212;6.980;2023-06-22T09:31:20;12.73;;;9.35;;
50821;SDS011;36794;51.212;6.980;2023-06-22T09:33:50;12.30;;;9.48;;
50821;SDS011;36794;51.212;6.980;2023-06-22T09:36:17;16.88;;;9.65;;
50821;SDS011;36794;51.212;6.980;2023-06-22T09:38:43;12.23;;;9.48;;
50821;SDS011;36794;51.212;6.980;2023-06-22T09:41:09;12.73;;;8.98;;
50821;SDS011;36794;51.212;6.980;2023-06-22T09:43:35;13.55;;;8.57;;
50821;SDS011;36794;51.212;6.980;2023-06-22T09:46:01;10.77;;;8.43;;
50821;SDS011;36794;51.212;6.980;2023-06-22T09:48:27;14.85;;;8.23;;
50821;SDS011;36794;51.212;6.980;2023-06-22T09:50:54;9.20;;;8.18;;
50821;SDS011;36794;51.212;6.980;2023-06-22T09:53:20;10.85;;;8.77;;
50821;SDS011;36794;51.212;6.980;2023-06-22T09:55:46;10.13;;;9.13;;
50821;SDS011;36794;51.212;6.980;2023-06-22T09:58:12;11.07;;;8.10;;
50821;SDS011;36794;51.212;6.980;2023-06-22T10:00:38;9.27;;;8.02;;
50821;SDS011;36794;51.212;6.980;2023-06-22T10:03:06;11.57;;;8.38;;
50821;SDS011;36794;51.212;6.980;2023-06-22T10:05:32;14.20;;;8.68;;
50821;SDS011;36794;51.212;6.980;2023-06-22T10:07:58;10.90;;;8.05;;
50821;SDS011;36794;51.212;6.980;2023-06-22T10:10:24;14.48;;;8.57;;
50821;SDS011;36794;51.212;6.980;2023-06-22T10:12:57;10.20;;;8.25;;
50821;SDS011;36794;51.212;6.980;2023-06-22T10:15:23;9.98;;;8.18;;
50821;SDS011;36794;51.212;6.980;2023-06-22T10:17:51;10.30;;;7.82;;
50821;SDS011;36794;51.212;6.980;2023-06-22T10:20:17;10.00;;;8.30;;
50821;SDS011;36794;51.212;6.980;2023-06-22T10:22:44;9.98;;;8.75;;
50821;SDS011;36794;51.212;6.980;2023-06-22T10:25:11;11.30;;;8.15;;
50821;SDS011;36794;51.212;6.980;2023-06-22T10:27:37;9.25;;;8.15;;
50821;SDS011;36794;51.212;6.980;2023-06-22T10:30:09;12.18;;;8.20;;
50821;SDS011;36794;51.212;6.980;2023-06-22T10:32:37;11.20;;;7.47;;
50821;SDS011;36794;51.212;6.980;2023-06-22T10:35:04;12.48;;;8.40;;
50821;SDS011;36794;51.212;6.980;2023-06-22T10:37:30;11.07;;;8.20;;
50821;SDS011;36794;51.212;6.980;2023-06-22T10:39:56;11.77;;;8.43;;
50821;SDS011;36794;51.212;6.980;2023-06-22T10:42:22;9.20;;;7.78;;
50821;SDS011;36794;51.212;6.980;2023-06-22T10:44:48;11.90;;;8.93;;
50821;SDS011;36794;51.212;6.980;2023-06-22T10:47:14;11.68;;;8.85;;
50821;SDS011;36794;51.212;6.980;2023-06-22T10:49:40;10.90;;;8.15;;
50821;SDS011;36794;51.212;6.980;2023-06-22T10:52:06;14.60;;;9.98;;
50821;SDS011;36794;51.212;6.980;2023-06-22T10:54:32;13.85;;;10.13;;
50821;SDS011;36794;51.212;6.980;2023-06-22T10:56:59;15.55;;;10.70;;
50821;SDS011;36794;51.212;6.980;2023-06-22T10:59:25;12.60;;;10.68;;
50821;SDS011;36794;51.212;6.980;2023-06-22T11:01:52;16.77;;;11.40;;
50821;SDS011;36794;51.212;6.980;2023-06-22T11:04:18;19.70;;;12.25;;
50821;SDS011;36794;51.212;6.980;2023-06-22T11:06:44;16.45;;;11.98;;
50821;SDS011;36794;51.212;6.980;2023-06-22T11:09:10;15.82;;;12.75;;
50821;SDS011;36794;51.212;6.980;2023-06-22T11:11:36;17.35;;;12.63;;
50821;SDS011;36794;51.212;6.980;2023-06-22T11:14:02;20.40;;;14.30;;
50821;SDS011;36794;51.212;6.980;2023-06-22T11:16:28;22.70;;;14.40;;
50821;SDS011;36794;51.212;6.980;2023-06-22T11:18:54;18.27;;;14.70;;
50821;SDS011;36794;51.212;6.980;2023-06-22T11:21:20;20.95;;;15.43;;
50821;SDS011;36794;51.212;6.980;2023-06-22T11:23:46;18.98;;;14.52;;
50821;SDS011;36794;51.212;6.980;2023-06-22T11:26:13;19.13;;;15.65;;
50821;SDS011;36794;51.212;6.980;2023-06-22T11:28:39;21.83;;;17.00;;
50821;SDS011;36794;51.212;6.980;2023-06-22T11:31:05;23.00;;;17.42;;
50821;SDS011;36794;51.212;6.980;2023-06-22T11:33:32;24.83;;;17.63;;
50821;SDS011;36794;51.212;6.980;2023-06-22T11:35:58;27.55;;;17.73;;
50821;SDS011;36794;51.212;6.980;2023-06-22T11:38:25;35.33;;;18.23;;
50821;SDS011;36794;51.212;6.980;2023-06-22T11:40:50;47.85;;;18.98;;
50821;SDS011;36794;51.212;6.980;2023-06-22T11:43:16;33.10;;;19.45;;
50821;SDS011;36794;51.212;6.980;2023-06-22T11:45:42;25.52;;;18.95;;
50821;SDS011;36794;51.212;6.980;2023-06-22T11:48:08;29.48;;;19.17;;
50821;SDS011;36794;51.212;6.980;2023-06-22T11:50:34;27.70;;;19.63;;
50821;SDS011;36794;51.212;6.980;2023-06-22T11:53:01;28.13;;;19.27;;
50821;SDS011;36794;51.212;6.980;2023-06-22T11:55:28;25.48;;;19.77;;
50821;SDS011;36794;51.212;6.980;2023-06-22T11:57:55;26.05;;;19.60;;
50821;SDS011;36794;51.212;6.980;2023-06-22T12:00:21;25.05;;;18.40;;
50821;SDS011;36794;51.212;6.980;2023-06-22T12:02:49;21.45;;;18.38;;
50821;SDS011;36794;51.212;6.980;2023-06-22T12:05:16;25.92;;;19.45;;
50821;SDS011;36794;51.212;6.980;2023-06-22T12:07:42;28.73;;;18.98;;
50821;SDS011;36794;51.212;6.980;2023-06-22T12:10:08;26.83;;;18.73;;
50821;SDS011;36794;51.212;6.980;2023-06-22T12:12:34;28.98;;;19.60;;
50821;SDS011;36794;51.212;6.980;2023-06-22T12:15:00;29.25;;;19.77;;
50821;SDS011;36794;51.212;6.980;2023-06-22T12:17:28;27.35;;;19.75;;
50821;SDS011;36794;51.212;6.980;2023-06-22T12:19:54;31.55;;;18.45;;
50821;SDS011;36794;51.212;6.980;2023-06-22T12:22:21;26.48;;;18.40;;
50821;SDS011;36794;51.212;6.980;2023-06-22T12:24:46;22.33;;;17.27;;
50821;SDS011;36794;51.212;6.980;2023-06-22T12:27:12;34.72;;;19.55;;
50821;SDS011;36794;51.212;6.980;2023-06-22T12:29:41;24.80;;;19.35;;
50821;SDS011;36794;51.212;6.980;2023-06-22T12:32:07;28.55;;;20.65;;
50821;SDS011;36794;51.212;6.980;2023-06-22T12:34:33;28.73;;;19.75;;
50821;SDS011;36794;51.212;6.980;2023-06-22T12:36:59;22.98;;;18.45;;
50821;SDS011;36794;51.212;6.980;2023-06-22T12:39:25;27.77;;;19.15;;
50821;SDS011;36794;51.212;6.980;2023-06-22T12:41:51;23.63;;;18.27;;
50821;SDS011;36794;51.212;6.980;2023-06-22T12:44:17;21.35;;;18.90;;
50821;SDS011;36794;51.212;6.980;2023-06-22T12:46:43;29.30;;;17.30;;
50821;SDS011;36794;51.212;6.980;2023-06-22T12:49:08;24.05;;;19.02;;
50821;SDS011;36794;51.212;6.980;2023-06-22T12:51:39;23.90;;;20.15;;
50821;SDS011;36794;51.212;6.980;2023-06-22T12:54:05;23.73;;;19.33;;
50821;SDS011;36794;51.212;6.980;2023-06-22T12:56:31;22.73;;;19.67;;
50821;SDS011;36794;51.212;6.980;2023-06-22T12:58:57;23.75;;;18.40;;
50821;SDS011;36794;51.212;6.980;2023-06-22T13:01:23;34.95;;;19.50;;
50821;SDS011;36794;51.212;6.980;2023-06-22T13:03:58;21.17;;;17.65;;
50821;SDS011;36794;51.212;6.980;2023-06-22T13:06:24;20.90;;;16.85;;
50821;SDS011;36794;51.212;6.980;2023-06-22T13:08:50;20.30;;;16.05;;
50821;SDS011;36794;51.212;6.980;2023-06-22T13:11:16;19.77;;;15.50;;
50821;SDS011;36794;51.212;6.980;2023-06-22T13:13:43;16.35;;;14.30;;
50821;SDS011;36794;51.212;6.980;2023-06-22T13:16:09;20.40;;;16.40;;
50821;SDS011;36794;51.212;6.980;2023-06-22T13:18:35;19.45;;;15.30;;
50821;SDS011;36794;51.212;6.980;2023-06-22T13:21:04;19.77;;;15.15;;
50821;SDS011;36794;51.212;6.980;2023-06-22T13:23:30;21.20;;;15.65;;
50821;SDS011;36794;51.212;6.980;2023-06-22T13:25:57;17.25;;;15.40;;
50821;SDS011;36794;51.212;6.980;2023-06-22T13:28:23;21.58;;;15.63;;
50821;SDS011;36794;51.212;6.980;2023-06-22T13:30:49;17.23;;;14.35;;
50821;SDS011;36794;51.212;6.980;2023-06-22T13:33:15;16.50;;;14.13;;
50821;SDS011;36794;51.212;6.980;2023-06-22T13:35:42;18.38;;;12.30;;
50821;SDS011;36794;51.212;6.980;2023-06-22T13:38:11;15.63;;;12.77;;
50821;SDS011;36794;51.212;6.980;2023-06-22T13:40:37;13.82;;;11.43;;
50821;SDS011;36794;51.212;6.980;2023-06-22T13:43:04;14.15;;;11.52;;
50821;SDS011;36794;51.212;6.980;2023-06-22T13:45:30;18.75;;;12.05;;
50821;SDS011;36794;51.212;6.980;2023-06-22T13:47:56;15.65;;;12.13;;
50821;SDS011;36794;51.212;6.980;2023-06-22T13:50:22;13.82;;;12.40;;
50821;SDS011;36794;51.212;6.980;2023-06-22T13:52:48;13.43;;;11.85;;
50821;SDS011;36794;51.212;6.980;2023-06-22T13:55:14;13.63;;;11.18;;
50821;SDS011;36794;51.212;6.980;2023-06-22T13:57:40;13.38;;;10.25;;
50821;SDS011;36794;51.212;6.980;2023-06-22T14:00:07;14.73;;;10.45;;
50821;SDS011;36794;51.212;6.980;2023-06-22T14:02:37;14.80;;;9.77;;
50821;SDS011;36794;51.212;6.980;2023-06-22T14:05:04;16.20;;;10.02;;
50821;SDS011;36794;51.212;6.980;2023-06-22T14:07:31;12.48;;;9.77;;
50821;SDS011;36794;51.212;6.980;2023-06-22T14:09:57;13.93;;;9.80;;
50821;SDS011;36794;51.212;6.980;2023-06-22T14:12:23;12.82;;;9.52;;
50821;SDS011;36794;51.212;6.980;2023-06-22T14:14:49;12.90;;;10.30;;
50821;SDS011;36794;51.212;6.980;2023-06-22T14:17:15;12.75;;;10.27;;
50821;SDS011;36794;51.212;6.980;2023-06-22T14:19:41;17.08;;;11.38;;
50821;SDS011;36794;51.212;6.980;2023-06-22T14:22:07;15.48;;;10.80;;
50821;SDS011;36794;51.212;6.980;2023-06-22T14:24:33;19.52;;;11.40;;
50821;SDS011;36794;51.212;6.980;2023-06-22T14:26:59;16.27;;;11.23;;
50821;SDS011;36794;51.212;6.980;2023-06-22T14:29:27;15.07;;;10.40;;
50821;SDS011;36794;51.212;6.980;2023-06-22T14:31:53;14.52;;;11.15;;
50821;SDS011;36794;51.212;6.980;2023-06-22T14:34:19;14.18;;;11.38;;